createdAt,value
2019-03-02T08:04:20.344Z,8.60
2019-03-02T08:09:25.905Z,8.70
2019-03-02T08:14:31.547Z,8.60
2019-03-02T08:19:39.252Z,8.80
2019-03-02T08:24:48.155Z,8.80
2019-03-02T08:29:58.120Z,8.90
2019-03-02T08:35:04.966Z,9.00
2019-03-02T08:40:23.464Z,9.20
2019-03-02T08:45:27.673Z,9.20
2019-03-02T08:50:33.390Z,9.00
2019-03-02T08:55:39.169Z,9.00
2019-03-02T09:00:43.564Z,9.20
2019-03-02T09:05:51.645Z,9.30
2019-03-02T09:10:56.763Z,9.20
2019-03-02T09:16:05.378Z,9.30
2019-03-02T09:21:12.418Z,9.20
2019-03-02T09:38:27.962Z,9.60
2019-03-02T09:44:00.968Z,9.70
2019-03-02T09:49:18.598Z,9.90
2019-03-02T09:54:19.735Z,10.00
2019-03-02T09:59:24.616Z,9.90
2019-03-02T10:04:29.160Z,9.80
2019-03-02T10:09:37.760Z,9.90
2019-03-02T10:14:45.988Z,10.00
2019-03-02T10:20:21.669Z,9.90
2019-03-02T10:25:48.429Z,9.80
2019-03-02T10:31:21.331Z,9.80
2019-03-02T10:36:54.574Z,9.80
2019-03-02T10:42:12.913Z,9.80
2019-03-02T10:47:22.153Z,9.70
2019-03-02T10:52:31.678Z,9.70
2019-03-02T10:57:55.235Z,9.80
2019-03-02T11:03:16.538Z,9.80
2019-03-02T11:08:43.180Z,10.00
2019-03-02T11:37:11.054Z,10.60
2019-03-02T11:43:05.098Z,10.90
2019-03-02T11:49:04.314Z,11.00
2019-03-02T11:54:16.364Z,11.10
2019-03-02T12:00:00.810Z,11.00
2019-03-02T12:05:36.338Z,11.20
2019-03-02T12:10:48.123Z,11.20
2019-03-02T12:16:29.489Z,11.60
2019-03-02T13:12:22.757Z,13.40
2019-03-02T13:34:27.474Z,13.70
2019-03-02T22:40:05.692Z,10.50
